createdAt,value
2023-01-26T00:00:32.532Z,58.25
2023-01-26T00:15:53.703Z,66.62
2023-01-26T00:31:08.638Z,62.98
2023-01-26T00:46:13.786Z,60.39
2023-01-26T01:01:19.223Z,49.15
2023-01-26T01:16:23.530Z,48.99
2023-01-26T01:31:29.932Z,51.28
2023-01-26T01:46:34.712Z,53.39
2023-01-26T02:01:40.299Z,55.40
2023-01-26T02:16:44.512Z,57.25
2023-01-26T02:31:49.220Z,59.02
2023-01-26T02:46:53.447Z,60.40
2023-01-26T03:01:58.997Z,61.67
2023-01-26T03:17:03.203Z,73.99
2023-01-26T03:32:07.869Z,74.52
2023-01-26T03:47:30.547Z,66.24
2023-01-26T04:02:54.325Z,63.54
2023-01-26T04:18:16.881Z,61.21
2023-01-26T04:33:21.835Z,54.62
2023-01-26T04:48:26.586Z,47.96
2023-01-26T05:03:32.944Z,52.29
2023-01-26T05:18:37.242Z,56.35
2023-01-26T05:33:54.418Z,56.45
2023-01-26T05:49:11.652Z,58.04
2023-01-26T06:04:16.164Z,59.38
2023-01-26T06:19:26.287Z,69.50
2023-01-26T06:34:34.999Z,76.46
2023-01-26T06:49:41.366Z,69.64
2023-01-26T07:04:48.786Z,62.35
2023-01-26T07:19:53.567Z,53.68
2023-01-26T07:34:58.978Z,48.63
2023-01-26T07:50:06.251Z,51.36
2023-01-26T08:05:11.645Z,56.23
2023-01-26T08:20:16.241Z,58.86
2023-01-26T08:35:20.557Z,75.80
2023-01-26T08:50:26.025Z,72.91
2023-01-26T09:05:33.523Z,66.02
2023-01-26T09:20:41.760Z,61.84
2023-01-26T09:35:47.802Z,57.40
2023-01-26T09:51:03.199Z,49.13
2023-01-26T10:06:10.540Z,59.10
2023-01-26T10:21:38.882Z,70.26
2023-01-26T10:36:44.861Z,64.91
2023-01-26T10:52:52.920Z,61.86
2023-01-26T11:08:02.926Z,60.50
2023-01-26T11:23:11.272Z,54.46
2023-01-26T11:38:34.029Z,55.27
2023-01-26T11:53:49.552Z,61.74
2023-01-26T12:08:55.294Z,73.09
2023-01-26T12:24:03.414Z,65.24
2023-01-26T12:39:17.594Z,61.30
2023-01-26T12:54:33.085Z,58.09
2023-01-26T13:09:37.871Z,48.77
2023-01-26T13:24:44.283Z,53.91
2023-01-26T13:39:52.794Z,55.65
2023-01-26T13:55:01.063Z,59.62
2023-01-26T14:10:07.440Z,73.67
2023-01-26T14:25:11.978Z,72.19
2023-01-26T14:40:17.077Z,65.18
2023-01-26T14:55:27.207Z,61.63
2023-01-26T15:10:31.861Z,59.72
2023-01-26T15:25:38.435Z,49.09
2023-01-26T15:40:44.561Z,51.05
2023-01-26T15:56:08.744Z,59.13
2023-01-26T17:00:19.448Z,62.91
2023-01-26T17:15:25.164Z,60.53
2023-01-26T17:30:30.187Z,60.13
2023-01-26T17:45:34.277Z,57.20
2023-01-26T18:00:39.454Z,49.37
2023-01-26T18:15:44.893Z,55.82
2023-01-26T18:30:49.342Z,59.39
2023-01-26T18:45:53.902Z,70.27
2023-01-26T19:00:58.715Z,73.53
2023-01-26T19:16:03.371Z,66.89
2023-01-26T19:31:07.957Z,63.33
2023-01-26T19:46:12.649Z,61.82
2023-01-26T20:01:17.498Z,61.11
2023-01-26T20:16:21.990Z,59.71
2023-01-26T20:31:27.085Z,49.30
2023-01-26T20:46:40.472Z,50.28
2023-01-26T21:01:45.094Z,55.36
2023-01-26T21:16:49.666Z,60.29
2023-01-26T21:31:55.055Z,74.27
2023-01-26T21:47:00.391Z,71.21
2023-01-26T22:02:06.683Z,63.62
2023-01-26T22:17:11.704Z,61.09
2023-01-26T22:32:17.119Z,59.84
2023-01-26T22:47:22.002Z,58.03
2023-01-26T23:02:26.701Z,50.10
2023-01-26T23:17:31.034Z,55.10
2023-01-26T23:32:36.053Z,68.12
2023-01-26T23:47:41.440Z,71.19
